createdAt,value
2018-03-21T00:01:10.493Z,98881.04
2018-03-21T00:03:40.227Z,98871.20
2018-03-21T00:06:09.449Z,98873.98
2018-03-21T00:08:38.372Z,98869.09
2018-03-21T00:11:07.640Z,98867.67
2018-03-21T00:13:36.690Z,98877.85
2018-03-21T00:16:05.883Z,98874.02
2018-03-21T00:18:35.242Z,98872.02
2018-03-21T00:21:04.588Z,98864.50
2018-03-21T00:23:33.950Z,98865.16
2018-03-21T00:26:03.788Z,98870.72
2018-03-21T00:28:32.803Z,98873.66
2018-03-21T00:31:02.123Z,98863.30
2018-03-21T00:33:31.611Z,98876.04
2018-03-21T00:36:00.997Z,98887.74
2018-03-21T00:38:30.474Z,98882.20
2018-03-21T00:40:59.504Z,98883.86
2018-03-21T00:43:28.621Z,98888.83
2018-03-21T00:45:57.780Z,98879.75
2018-03-21T00:48:27.000Z,98880.77
2018-03-21T00:50:56.380Z,98888.59
2018-03-21T00:53:26.293Z,98901.39
2018-03-21T00:55:55.689Z,98893.72
2018-03-21T00:58:25.929Z,98891.17
2018-03-21T01:00:54.774Z,98897.02
2018-03-21T01:03:24.092Z,98901.20
2018-03-21T01:05:54.035Z,98890.05
2018-03-21T01:08:23.018Z,98884.02
2018-03-21T01:10:52.286Z,98887.63
2018-03-21T01:13:21.594Z,98905.08
2018-03-21T01:15:50.822Z,98914.09
2018-03-21T01:18:20.378Z,98911.37
2018-03-21T01:20:50.013Z,98921.11
2018-03-21T01:23:19.760Z,98921.17
2018-03-21T01:25:49.057Z,98914.52
2018-03-21T01:28:18.536Z,98921.55
2018-03-21T01:30:47.980Z,98921.75
2018-03-21T01:33:16.972Z,98931.23
2018-03-21T01:35:46.599Z,98935.12
2018-03-21T01:38:15.821Z,98929.48
2018-03-21T01:40:45.350Z,98929.20
2018-03-21T01:43:14.699Z,98928.93
2018-03-21T01:45:43.678Z,98934.63
2018-03-21T01:48:13.011Z,98950.45
2018-03-21T01:50:42.214Z,98953.09
2018-03-21T01:53:12.575Z,98957.32
2018-03-21T01:55:41.925Z,98951.27
2018-03-21T01:58:11.212Z,98957.27
2018-03-21T02:00:40.399Z,98958.47
2018-03-21T02:03:09.812Z,98975.58
2018-03-21T02:05:39.371Z,98972.91
2018-03-21T02:08:08.299Z,98977.86
2018-03-21T02:10:37.468Z,98985.89
2018-03-21T02:13:06.865Z,98987.59
2018-03-21T02:15:36.160Z,98988.41
2018-03-21T02:18:05.540Z,98999.68
2018-03-21T02:20:35.024Z,98991.43
2018-03-21T02:23:04.556Z,99001.47
2018-03-21T02:25:34.066Z,98992.67
2018-03-21T02:28:03.186Z,99000.53
2018-03-21T02:30:32.702Z,99007.36
2018-03-21T02:33:02.131Z,99014.04
2018-03-21T02:35:31.617Z,99010.69
2018-03-21T02:38:00.911Z,99021.62
2018-03-21T02:40:29.825Z,99019.79
2018-03-21T02:42:58.939Z,99020.46
2018-03-21T02:45:28.018Z,99018.75
2018-03-21T02:47:57.158Z,99022.45
2018-03-21T02:50:26.589Z,99014.44
2018-03-21T02:52:56.059Z,99018.69
2018-03-21T02:55:25.397Z,99022.20
2018-03-21T02:57:54.957Z,99015.57
2018-03-21T03:00:25.427Z,99024.73
2018-03-21T03:02:54.791Z,99026.06
2018-03-21T03:05:24.351Z,99026.49
2018-03-21T03:07:53.577Z,99027.31
2018-03-21T03:10:22.522Z,99027.88
2018-03-21T03:12:52.123Z,99032.44
2018-03-21T03:15:21.280Z,99040.52
2018-03-21T03:17:50.883Z,99042.35
2018-03-21T03:20:20.186Z,99045.05
2018-03-21T03:22:49.618Z,99053.08
2018-03-21T03:25:18.873Z,99059.43
2018-03-21T03:27:48.385Z,99057.55
2018-03-21T03:30:17.831Z,99060.05
2018-03-21T03:32:47.491Z,99055.97
2018-03-21T03:35:17.180Z,99064.18
2018-03-21T03:37:46.372Z,99077.98
2018-03-21T03:40:15.252Z,99071.11
2018-03-21T03:42:44.521Z,99068.02
2018-03-21T03:45:13.812Z,99067.95
2018-03-21T03:47:42.949Z,99072.14
2018-03-21T03:50:12.327Z,99074.78
2018-03-21T03:52:41.658Z,99071.23
2018-03-21T03:55:11.067Z,99076.06
2018-03-21T03:57:40.454Z,99074.77
2018-03-21T04:00:09.600Z,99075.20
2018-03-21T04:02:40.045Z,99078.97
2018-03-21T04:05:09.249Z,99076.41
2018-03-21T04:07:38.745Z,99069.08
2018-03-21T04:10:08.245Z,99065.55
2018-03-21T04:12:37.455Z,99063.78
2018-03-21T04:15:06.692Z,99063.10
2018-03-21T04:17:36.158Z,99064.94
2018-03-21T04:20:05.565Z,99058.19
2018-03-21T04:22:34.876Z,99060.50
2018-03-21T04:25:04.285Z,99058.17
2018-03-21T04:28:58.032Z,99051.77
2018-03-21T04:31:42.842Z,99054.23
2018-03-21T04:34:12.371Z,99055.24
2018-03-21T04:36:41.915Z,99054.83
2018-03-21T04:39:11.351Z,99054.37
2018-03-21T04:41:40.831Z,99061.17
2018-03-21T04:44:10.360Z,99059.84
2018-03-21T04:46:40.404Z,99059.19
2018-03-21T04:49:10.868Z,99062.84
2018-03-21T04:51:40.934Z,99064.27
2018-03-21T04:54:11.358Z,99067.73
2018-03-21T04:56:42.399Z,99062.16
2018-03-21T04:59:14.072Z,99061.86
2018-03-21T05:01:45.360Z,99058.86
2018-03-21T05:04:18.205Z,99061.69
2018-03-21T05:06:50.232Z,99063.34
2018-03-21T05:09:22.215Z,99065.85
2018-03-21T05:11:52.797Z,99069.70
2018-03-21T05:14:24.038Z,99070.10
2018-03-21T05:16:53.623Z,99072.39
2018-03-21T05:19:25.161Z,99068.50
2018-03-21T05:21:56.854Z,99060.52
2018-03-21T05:24:29.088Z,99059.28
2018-03-21T05:27:01.618Z,99063.80
2018-03-21T05:29:35.370Z,99056.18
2018-03-21T05:32:06.961Z,99056.41
2018-03-21T05:34:38.913Z,99057.91
2018-03-21T05:37:12.177Z,99056.11
2018-03-21T05:39:44.547Z,99046.50
2018-03-21T05:42:18.311Z,99045.04
2018-03-21T05:44:51.305Z,99044.73
2018-03-21T05:47:23.034Z,99041.56
2018-03-21T05:49:55.812Z,99035.22
2018-03-21T05:52:27.941Z,99032.20
2018-03-21T05:55:00.858Z,99029.72
2018-03-21T05:57:32.718Z,99033.27
2018-03-21T06:00:05.357Z,99027.33
2018-03-21T06:02:38.009Z,99025.08
2018-03-21T06:05:12.366Z,99018.91
2018-03-21T06:07:45.899Z,99017.45
2018-03-21T06:10:19.708Z,99020.34
2018-03-21T06:12:52.515Z,99017.39
2018-03-21T06:15:26.857Z,99013.94
2018-03-21T06:17:58.578Z,99017.52
2018-03-21T06:20:31.136Z,99019.63
2018-03-21T06:23:02.458Z,99016.72
2018-03-21T06:25:35.250Z,99024.25
2018-03-21T06:28:08.768Z,99016.80
2018-03-21T06:30:42.372Z,99006.66
2018-03-21T06:33:16.421Z,99009.94
2018-03-21T06:35:48.042Z,99009.37
2018-03-21T06:38:20.364Z,99004.94
2018-03-21T06:40:52.670Z,99011.23
2018-03-21T06:43:25.467Z,99000.47
2018-03-21T06:45:58.025Z,98999.38
2018-03-21T06:48:30.342Z,98990.16
2018-03-21T06:51:02.586Z,98987.55
2018-03-21T06:53:34.413Z,98993.69
2018-03-21T06:56:07.359Z,98991.88
2018-03-21T06:58:40.539Z,98981.73
2018-03-21T07:01:12.662Z,98977.09
2018-03-21T07:03:44.117Z,98972.25
2018-03-21T07:06:17.620Z,98970.47
2018-03-21T07:08:50.290Z,98965.23
2018-03-21T07:11:24.199Z,98953.39
2018-03-21T07:14:07.644Z,98949.34
2018-03-21T07:16:47.906Z,98935.19
2018-03-21T07:19:22.356Z,98940.51
2018-03-21T07:21:56.027Z,98937.25
2018-03-21T07:24:29.847Z,98926.52
2018-03-21T07:27:02.994Z,98922.52
2018-03-21T07:29:36.424Z,98918.83
2018-03-21T07:32:10.430Z,98914.53
2018-03-21T07:34:44.027Z,98908.94
2018-03-21T07:37:15.533Z,98904.94
2018-03-21T07:39:51.018Z,98903.13
2018-03-21T07:42:28.662Z,98901.09
2018-03-21T07:45:05.202Z,98897.63
2018-03-21T07:50:20.968Z,98889.52
2018-03-21T07:52:55.614Z,98886.00
2018-03-21T07:55:28.846Z,98881.59
2018-03-21T07:58:00.750Z,98876.40
2018-03-21T08:00:35.533Z,98866.92
2018-03-21T08:03:05.882Z,98866.98
2018-03-21T08:05:35.297Z,98865.42
2018-03-21T08:08:04.604Z,98864.92
2018-03-21T08:10:34.275Z,98861.27
2018-03-21T08:13:03.648Z,98852.11
2018-03-21T08:15:32.889Z,98852.81
2018-03-21T08:18:02.686Z,98842.19
2018-03-21T08:20:32.020Z,98841.23
2018-03-21T08:23:01.865Z,98835.23
2018-03-21T08:25:31.399Z,98836.81
2018-03-21T08:28:00.736Z,98840.53
2018-03-21T08:30:30.176Z,98835.78
2018-03-21T08:33:00.900Z,98833.70
2018-03-21T08:35:30.143Z,98832.89
2018-03-21T08:38:00.211Z,98833.53
2018-03-21T08:40:30.391Z,98821.64
2018-03-21T08:43:01.297Z,98825.02
2018-03-21T08:45:31.663Z,98818.63
2018-03-21T08:48:03.147Z,98819.42
2018-03-21T08:50:35.095Z,98809.94
2018-03-21T08:53:06.266Z,98807.66
2018-03-21T08:55:39.193Z,98812.27
2018-03-21T08:58:09.158Z,98801.23
2018-03-21T09:00:40.632Z,98786.88
2018-03-21T09:03:11.776Z,98790.09
2018-03-21T09:05:42.581Z,98793.59
2018-03-21T09:08:13.716Z,98779.41
2018-03-21T09:10:44.630Z,98788.42
2018-03-21T09:13:14.472Z,98782.23
2018-03-21T09:15:45.688Z,98776.87
2018-03-21T09:18:17.011Z,98771.81
2018-03-21T09:20:47.678Z,98766.52
2018-03-21T09:23:18.259Z,98759.70
2018-03-21T09:25:49.594Z,98757.41
2018-03-21T09:28:21.366Z,98760.58
2018-03-21T09:30:52.365Z,98760.92
2018-03-21T09:33:23.678Z,98752.95
2018-03-21T09:35:57.109Z,98755.56
2018-03-21T09:38:28.524Z,98744.92
2018-03-21T09:41:01.886Z,98739.64
2018-03-21T09:43:33.387Z,98737.97
2018-03-21T09:46:07.875Z,98739.52
2018-03-21T09:48:39.755Z,98735.59
2018-03-21T09:51:11.101Z,98743.03
2018-03-21T09:53:42.385Z,98733.23
2018-03-21T09:56:15.740Z,98735.22
2018-03-21T09:58:48.215Z,98731.77
2018-03-21T10:01:18.962Z,98730.68
2018-03-21T10:03:49.887Z,98727.22
2018-03-21T10:06:21.239Z,98715.59
2018-03-21T10:08:51.367Z,98721.84
2018-03-21T10:11:21.505Z,98723.33
2018-03-21T10:13:50.413Z,98725.20
2018-03-21T10:16:20.600Z,98725.51
2018-03-21T10:18:50.549Z,98734.55
2018-03-21T10:21:21.338Z,98719.63
2018-03-21T10:23:54.048Z,98719.88
2018-03-21T10:26:24.251Z,98719.56
2018-03-21T10:28:54.662Z,98727.95
2018-03-21T10:31:26.617Z,98722.77
2018-03-21T10:33:57.095Z,98724.12
2018-03-21T10:36:28.498Z,98732.78
2018-03-21T10:39:00.221Z,98724.52
2018-03-21T10:41:30.674Z,98723.42
2018-03-21T10:44:01.072Z,98732.52
2018-03-21T10:46:31.808Z,98729.81
2018-03-21T10:49:02.110Z,98733.10
2018-03-21T10:51:32.497Z,98732.39
2018-03-21T10:54:02.477Z,98733.13
2018-03-21T10:56:32.861Z,98729.97
2018-03-21T10:59:03.176Z,98734.25
2018-03-21T11:01:37.048Z,98731.00
2018-03-21T11:04:06.961Z,98732.27
2018-03-21T11:06:36.718Z,98739.77
2018-03-21T11:09:07.336Z,98738.16
2018-03-21T11:11:38.617Z,98733.75
2018-03-21T11:14:08.232Z,98734.88
2018-03-21T11:16:40.521Z,98730.95
2018-03-21T11:19:11.392Z,98731.42
2018-03-21T11:21:41.229Z,98729.09
2018-03-21T11:24:11.412Z,98737.52
2018-03-21T11:26:41.071Z,98735.42
2018-03-21T11:29:10.412Z,98737.09
2018-03-21T11:31:39.851Z,98739.83
2018-03-21T11:34:09.561Z,98740.80
2018-03-21T11:36:39.713Z,98736.00
2018-03-21T11:39:09.188Z,98735.41
2018-03-21T11:41:39.629Z,98741.59
2018-03-21T11:44:09.370Z,98736.96
2018-03-21T11:46:39.216Z,98733.76
2018-03-21T11:49:08.959Z,98735.34
2018-03-21T11:51:41.722Z,98745.06
2018-03-21T11:54:11.084Z,98746.95
2018-03-21T11:56:40.725Z,98745.13
2018-03-21T11:59:11.291Z,98749.75
2018-03-21T12:01:41.284Z,98749.52
2018-03-21T12:04:10.887Z,98759.03
2018-03-21T12:06:41.746Z,98752.83
2018-03-21T12:09:11.794Z,98754.61
2018-03-21T12:11:41.194Z,98758.75
2018-03-21T12:14:10.812Z,98765.44
2018-03-21T12:16:40.443Z,98770.14
2018-03-21T12:19:09.907Z,98768.30
2018-03-21T12:21:39.526Z,98774.47
2018-03-21T12:24:08.927Z,98769.45
2018-03-21T12:26:38.498Z,98775.66
2018-03-21T12:29:08.521Z,98775.13
2018-03-21T12:31:37.922Z,98779.88
2018-03-21T12:34:07.248Z,98786.66
2018-03-21T12:36:36.599Z,98791.02
2018-03-21T12:39:06.140Z,98785.86
2018-03-21T12:41:35.850Z,98792.36
2018-03-21T12:44:05.808Z,98796.70
2018-03-21T12:46:35.515Z,98801.05
2018-03-21T12:49:05.102Z,98805.13
2018-03-21T12:51:34.560Z,98807.42
2018-03-21T12:54:03.832Z,98811.87
2018-03-21T12:56:33.442Z,98815.77
2018-03-21T12:59:02.777Z,98809.83
2018-03-21T13:01:31.930Z,98811.84
2018-03-21T13:04:01.406Z,98818.67
2018-03-21T13:06:31.178Z,98820.39
2018-03-21T13:09:00.579Z,98820.81
2018-03-21T13:11:29.848Z,98828.56
2018-03-21T13:13:59.575Z,98834.74
2018-03-21T13:16:29.177Z,98838.16
2018-03-21T13:18:58.829Z,98840.81
2018-03-21T13:21:29.462Z,98843.27
2018-03-21T13:23:58.843Z,98842.19
2018-03-21T13:26:28.227Z,98849.05
2018-03-21T13:28:57.571Z,98854.30
2018-03-21T13:31:27.066Z,98848.83
2018-03-21T13:33:56.468Z,98855.59
2018-03-21T13:36:26.003Z,98857.67
2018-03-21T13:38:55.250Z,98858.50
2018-03-21T13:41:24.856Z,98870.08
2018-03-21T13:43:54.609Z,98871.68
2018-03-21T13:46:25.016Z,98875.12
2018-03-21T13:48:54.475Z,98882.45
2018-03-21T13:51:23.867Z,98887.79
2018-03-21T13:53:53.792Z,98891.15
2018-03-21T13:56:23.342Z,98897.36
2018-03-21T13:58:53.114Z,98896.27
2018-03-21T14:01:22.564Z,98907.05
2018-03-21T14:03:52.193Z,98906.70
2018-03-21T14:06:21.833Z,98907.81
2018-03-21T14:08:51.327Z,98909.88
2018-03-21T14:11:20.723Z,98911.80
2018-03-21T14:13:50.223Z,98919.78
2018-03-21T14:16:20.070Z,98915.94
2018-03-21T14:18:49.208Z,98924.34
2018-03-21T14:21:18.771Z,98925.34
2018-03-21T14:23:48.019Z,98923.58
2018-03-21T14:26:17.946Z,98932.13
2018-03-21T14:28:47.395Z,98939.58
2018-03-21T14:31:17.807Z,98941.44
2018-03-21T14:33:47.471Z,98934.67
2018-03-21T14:36:16.732Z,98936.81
2018-03-21T14:38:45.872Z,98941.63
2018-03-21T14:41:15.617Z,98943.22
2018-03-21T14:43:45.120Z,98949.03
2018-03-21T14:46:14.634Z,98962.39
2018-03-21T14:48:43.953Z,98945.55
2018-03-21T14:51:13.815Z,98952.19
2018-03-21T14:53:42.929Z,98954.08
2018-03-21T14:56:12.568Z,98956.08
2018-03-21T14:58:41.846Z,98967.48
2018-03-21T15:01:11.532Z,98978.80
2018-03-21T15:03:40.775Z,98976.39
2018-03-21T15:06:10.197Z,98972.84
2018-03-21T15:08:39.617Z,98977.75
2018-03-21T15:11:08.820Z,98983.83
2018-03-21T15:13:38.172Z,98993.75
2018-03-21T15:16:07.968Z,98992.33
2018-03-21T15:18:37.292Z,98998.21
2018-03-21T15:21:06.726Z,98991.43
2018-03-21T15:23:36.388Z,98994.36
2018-03-21T15:26:05.975Z,98995.63
2018-03-21T15:28:35.392Z,98998.04
2018-03-21T15:31:04.756Z,99003.05
2018-03-21T15:33:33.926Z,99003.77
2018-03-21T15:36:03.444Z,99010.68
2018-03-21T15:38:32.455Z,99014.22
2018-03-21T15:41:01.849Z,99019.17
2018-03-21T15:43:31.629Z,99016.34
2018-03-21T15:46:00.976Z,99020.48
2018-03-21T15:48:31.491Z,99018.83
2018-03-21T15:53:13.045Z,99032.02
2018-03-21T15:55:43.495Z,99029.07
2018-03-21T15:58:12.804Z,99036.48
2018-03-21T16:00:43.715Z,99037.59
2018-03-21T16:03:13.344Z,99046.47
2018-03-21T16:05:43.218Z,99044.52
2018-03-21T16:08:12.685Z,99050.66
2018-03-21T16:10:42.493Z,99054.64
2018-03-21T16:13:12.166Z,99043.50
2018-03-21T16:15:42.080Z,99049.22
2018-03-21T16:18:12.291Z,99046.03
2018-03-21T16:20:41.932Z,99048.55
2018-03-21T16:23:11.671Z,99051.00
2018-03-21T16:25:41.402Z,99053.64
2018-03-21T16:28:11.898Z,99051.00
2018-03-21T16:30:42.931Z,99052.66
2018-03-21T16:33:13.004Z,99052.23
2018-03-21T16:35:42.887Z,99050.20
2018-03-21T16:38:15.898Z,99057.48
2018-03-21T16:40:46.554Z,99061.88
2018-03-21T16:43:16.550Z,99069.73
2018-03-21T16:45:46.849Z,99066.53
2018-03-21T16:48:16.733Z,99058.75
2018-03-21T16:56:51.397Z,99066.16
2018-03-21T17:05:16.325Z,99061.83
2018-03-21T17:07:59.067Z,99062.72
2018-03-21T17:22:07.819Z,99059.30
2018-03-21T17:24:37.719Z,99061.38
2018-03-21T17:27:08.864Z,99059.70
2018-03-21T17:29:42.902Z,99068.28
2018-03-21T17:32:18.860Z,99063.37
2018-03-21T17:34:49.807Z,99059.91
2018-03-21T17:37:23.318Z,99066.17
2018-03-21T17:39:55.433Z,99063.66
2018-03-21T17:42:26.478Z,99072.84
2018-03-21T17:44:58.052Z,99082.43
2018-03-21T17:47:28.977Z,99089.40
2018-03-21T17:49:59.723Z,99085.02
2018-03-21T17:52:30.851Z,99083.09
2018-03-21T17:55:01.140Z,99069.06
2018-03-21T17:57:31.903Z,99072.13
2018-03-21T18:00:02.613Z,99076.66
2018-03-21T18:02:34.680Z,99081.78
2018-03-21T18:05:05.686Z,99084.11
2018-03-21T18:07:37.778Z,99076.89
2018-03-21T18:10:07.484Z,99082.91
2018-03-21T18:12:39.145Z,99075.35
2018-03-21T18:15:09.014Z,99072.58
2018-03-21T18:17:39.742Z,99063.19
2018-03-21T18:20:11.730Z,99080.98
2018-03-21T18:22:41.830Z,99082.37
2018-03-21T18:25:11.507Z,99074.74
2018-03-21T18:27:41.379Z,99073.06
2018-03-21T18:30:11.218Z,99068.73
2018-03-21T18:32:40.795Z,99065.45
2018-03-21T18:35:11.588Z,99064.78
2018-03-21T18:37:42.175Z,99067.64
2018-03-21T18:40:13.011Z,99066.56
2018-03-21T18:42:42.663Z,99062.36
2018-03-21T18:45:12.796Z,99057.69
2018-03-21T18:50:36.908Z,99065.50
2018-03-21T18:53:06.178Z,99058.27
2018-03-21T18:55:36.542Z,99062.12
2018-03-21T18:58:06.686Z,99059.08
2018-03-21T19:00:36.226Z,99050.20
2018-03-21T19:03:05.545Z,99053.88
2018-03-21T19:05:35.272Z,99052.35
2018-03-21T19:08:05.034Z,99047.97
2018-03-21T19:10:34.665Z,99041.17
2018-03-21T19:13:03.945Z,99040.03
2018-03-21T19:15:33.215Z,99033.92
2018-03-21T19:18:03.049Z,99041.05
2018-03-21T19:20:32.123Z,99032.47
2018-03-21T19:23:01.347Z,99031.83
2018-03-21T19:25:30.856Z,99035.17
2018-03-21T19:28:00.322Z,99036.15
2018-03-21T19:30:30.205Z,99039.55
2018-03-21T19:32:59.352Z,99032.47
2018-03-21T19:35:28.533Z,99037.58
2018-03-21T19:37:57.673Z,99032.56
2018-03-21T19:40:26.653Z,99030.34
2018-03-21T19:42:56.117Z,99032.39
2018-03-21T19:45:25.670Z,99035.81
2018-03-21T19:47:55.603Z,99032.87
2018-03-21T19:50:25.389Z,99036.20
2018-03-21T19:52:54.632Z,99033.43
2018-03-21T19:55:24.034Z,99023.33
2018-03-21T19:57:53.448Z,99022.48
2018-03-21T20:00:22.932Z,99027.95
2018-03-21T20:02:52.473Z,99027.21
2018-03-21T20:05:21.864Z,99023.52
2018-03-21T20:07:51.519Z,99025.11
2018-03-21T20:10:20.687Z,99024.63
2018-03-21T20:12:50.229Z,99023.39
2018-03-21T20:15:19.700Z,99017.66
2018-03-21T20:17:49.325Z,99017.33
2018-03-21T20:20:18.699Z,99017.34
2018-03-21T20:22:48.192Z,99012.80
2018-03-21T20:25:17.626Z,99011.17
2018-03-21T20:27:46.898Z,99010.41
2018-03-21T20:30:16.529Z,99013.93
2018-03-21T20:32:46.171Z,99014.05
2018-03-21T20:35:15.420Z,99006.75
2018-03-21T20:37:44.738Z,99002.85
2018-03-21T20:40:14.173Z,99000.28
2018-03-21T20:42:43.297Z,98995.00
2018-03-21T20:45:12.628Z,98993.89
2018-03-21T20:47:41.823Z,98993.55
2018-03-21T20:50:11.275Z,98991.27
2018-03-21T20:52:40.920Z,98994.94
2018-03-21T20:55:10.244Z,98985.97
2018-03-21T20:57:40.312Z,98985.79
2018-03-21T21:00:09.724Z,98988.42
2018-03-21T21:02:39.101Z,98977.39
2018-03-21T21:05:08.582Z,98980.45
2018-03-21T21:07:38.849Z,98984.22
2018-03-21T21:10:07.993Z,98980.98
2018-03-21T21:12:37.567Z,98976.43
2018-03-21T21:15:07.227Z,98970.75
2018-03-21T21:17:36.609Z,98967.75
2018-03-21T21:20:06.315Z,98969.84
2018-03-21T21:22:35.550Z,98970.73
2018-03-21T21:25:04.975Z,98974.97
2018-03-21T21:27:34.450Z,98967.38
2018-03-21T21:30:04.097Z,98968.17
2018-03-21T21:32:33.307Z,98967.61
2018-03-21T21:35:02.847Z,98964.49
2018-03-21T21:37:32.324Z,98959.78
2018-03-21T21:40:01.838Z,98966.17
2018-03-21T21:42:31.163Z,98963.23
2018-03-21T21:45:00.547Z,98959.95
2018-03-21T21:47:45.239Z,98958.56
2018-03-21T21:50:14.902Z,98960.12
2018-03-21T21:52:44.762Z,98961.28
2018-03-21T21:55:14.170Z,98955.70
2018-03-21T21:57:43.961Z,98956.07
2018-03-21T22:00:13.943Z,98957.69
2018-03-21T22:02:43.256Z,98950.02
2018-03-21T22:05:12.572Z,98949.13
2018-03-21T22:07:42.281Z,98947.72
2018-03-21T22:10:11.738Z,98947.22
2018-03-21T22:12:41.227Z,98946.59
2018-03-21T22:15:10.634Z,98938.23
2018-03-21T22:17:40.329Z,98939.60
2018-03-21T22:20:09.848Z,98946.12
2018-03-21T22:22:39.405Z,98946.95
2018-03-21T22:28:02.757Z,98948.87
2018-03-21T22:30:32.104Z,98951.88
2018-03-21T22:33:01.455Z,98956.94
2018-03-21T22:38:24.655Z,98955.02
2018-03-21T22:40:54.226Z,98962.91
2018-03-21T22:43:23.329Z,98961.06
2018-03-21T22:45:52.489Z,98965.70
2018-03-21T22:48:22.011Z,98977.97
2018-03-21T22:50:51.276Z,98974.87
2018-03-21T22:53:20.752Z,98977.56
2018-03-21T22:55:50.118Z,98981.23
2018-03-21T22:58:20.096Z,98982.81
2018-03-21T23:00:49.343Z,98984.13
2018-03-21T23:03:18.820Z,98979.77
2018-03-21T23:05:48.172Z,98973.84
2018-03-21T23:08:17.450Z,98974.53
2018-03-21T23:10:46.834Z,98981.88
2018-03-21T23:13:16.418Z,98981.78
2018-03-21T23:15:45.811Z,98982.00
2018-03-21T23:18:15.092Z,98987.66
2018-03-21T23:20:44.487Z,98986.00
2018-03-21T23:23:13.857Z,98984.21
2018-03-21T23:25:43.189Z,98998.27
2018-03-21T23:28:12.262Z,98990.20
2018-03-21T23:30:41.499Z,98997.64
2018-03-21T23:33:10.719Z,99003.98
2018-03-21T23:35:40.206Z,99003.89
2018-03-21T23:38:09.505Z,99004.95
2018-03-21T23:40:38.996Z,99008.42
2018-03-21T23:43:08.180Z,99005.09
2018-03-21T23:45:37.502Z,99010.38
2018-03-21T23:48:06.727Z,99015.14
2018-03-21T23:50:36.108Z,99010.56
2018-03-21T23:53:05.259Z,99008.99
2018-03-21T23:55:34.590Z,99017.03
